ePrivacy and GPDR Cookie Consent by Cookie Consent
EmailTwitter


Observations de surface / France / LFMP (07747)

Régions: Québec | Canada | États-Unis | Europe | France | UK | Ailleurs
Station
Affichage
Infos & localisation pour LFMP (07747) | Aide pour décoder les METARs

Observations prises le 2022-06-25 à 01H30 UTC à PERPIGNAN/RIVESA, FR (LFMP)

Température: 18.0 Celsius

Point de rosée: 13.0 Celsius

Humidité relative: 73%

Vents: Sud-ouest à 7 km/h ou 4 noeuds.

Pression au niveau moyen de la mer: 101.30 kilopascals.

Observation METAR:

LFMP 250130Z AUTO 23004KT CAVOK 18/13 Q1013=